createdAt,value
2023-03-30T06:17:29.162Z,6.599
2023-03-30T06:19:23.342Z,8.399
2023-03-30T06:20:24.172Z,6.800
2023-03-30T06:21:24.132Z,7.800
2023-03-30T06:22:23.579Z,9
2023-03-30T06:23:24.930Z,6.400
2023-03-30T06:24:23.964Z,8.300
2023-03-30T06:25:24.726Z,4.699
2023-03-30T06:26:23.777Z,6.900
2023-03-30T06:27:23.331Z,7.699
2023-03-30T06:28:24.324Z,7
2023-03-30T06:29:24.008Z,6.800
2023-03-30T06:30:24.112Z,6.900
2023-03-30T06:31:24.021Z,6.800
2023-03-30T06:32:23.616Z,6.599
2023-03-30T06:33:23.861Z,5.300
2023-03-30T06:34:23.043Z,7.300
2023-03-30T06:35:23.521Z,6
2023-03-30T06:36:44.825Z,6.900
2023-03-30T06:37:23.409Z,4.900
2023-03-30T06:38:23.232Z,7.900
2023-03-30T06:39:24.606Z,8.399
2023-03-30T06:40:23.699Z,6.900
2023-03-30T06:41:23.808Z,6.5
2023-03-30T06:42:23.554Z,7.199
2023-03-30T06:43:23.911Z,6.800
2023-03-30T06:44:23.765Z,7
2023-03-30T06:46:23.330Z,6.400
2023-03-30T06:47:23.976Z,5.599
2023-03-30T06:48:24.263Z,7.5
2023-03-30T06:49:22.934Z,7.099
2023-03-30T06:50:23.368Z,6.599
2023-03-30T06:51:23.646Z,6.300
2023-03-30T06:52:23.453Z,6.099
2023-03-30T06:53:22.906Z,6.800
2023-03-30T06:54:23.833Z,6
2023-03-30T06:55:23.558Z,6.699
2023-03-30T06:56:23.246Z,5.599
2023-03-30T06:57:24.329Z,7.699
2023-03-30T06:58:24.523Z,5.699
2023-03-30T06:59:23.627Z,6.699
2023-03-30T07:00:24.299Z,8.699
2023-03-30T07:01:24.102Z,6.900
2023-03-30T07:02:23.525Z,4.699
2023-03-30T07:03:23.989Z,5.099
2023-03-30T07:04:28.834Z,6.099
2023-03-30T07:06:23.487Z,4.900
2023-03-30T07:07:23.591Z,7.300
2023-03-30T07:08:23.674Z,7.400
2023-03-30T07:09:23.699Z,6.400
2023-03-30T07:10:23.138Z,5.900
2023-03-30T07:11:23.682Z,7.400
2023-03-30T07:12:24.247Z,6.699
2023-03-30T07:13:23.195Z,6.199
2023-03-30T07:14:23.689Z,6.699
2023-03-30T07:15:24.252Z,5.900
2023-03-30T07:16:23.874Z,7.800
2023-03-30T07:17:25.684Z,7.199
2023-03-30T07:18:22.974Z,5.800
2023-03-30T07:19:24.114Z,5.5
2023-03-30T07:20:23.570Z,6.099
2023-03-30T07:21:23.921Z,5.5
2023-03-30T07:22:23.982Z,6.300
2023-03-30T07:23:23.277Z,4.900
2023-03-30T07:24:23.769Z,5
2023-03-30T07:25:23.914Z,5.300
2023-03-30T07:26:23.078Z,6.599
2023-03-30T07:27:25.319Z,6.199
2023-03-30T07:28:23.903Z,6.900
2023-03-30T07:29:23.481Z,6.199
2023-03-30T07:30:23.568Z,5.5
2023-03-30T07:31:23.448Z,5.300
2023-03-30T07:32:24.306Z,6
2023-03-30T07:33:25.017Z,6.199
2023-03-30T07:34:23.692Z,7.199
2023-03-30T07:35:23.950Z,5.5
2023-03-30T07:36:23.024Z,5.800
2023-03-30T07:37:23.126Z,7.400
2023-03-30T07:38:23.595Z,5.300
2023-03-30T07:39:28.764Z,6.900
2023-03-30T07:40:23.439Z,4.900
2023-03-30T07:41:23.468Z,6.699
2023-03-30T07:42:24.011Z,6.400
2023-03-30T07:43:23.781Z,8.300
2023-03-30T07:44:23.209Z,5.599
2023-03-30T07:45:23.849Z,6
2023-03-30T07:46:23.971Z,4.900
2023-03-30T07:47:23.731Z,4.599
2023-03-30T07:48:23.408Z,6.599
2023-03-30T07:49:23.435Z,7.300
2023-03-30T07:50:23.750Z,5.900
2023-03-30T07:52:24.155Z,4.5
2023-03-30T07:53:23.505Z,5.5
2023-03-30T07:54:23.203Z,5.300
2023-03-30T07:55:24.094Z,4
2023-03-30T07:56:23.412Z,5.699
2023-03-30T07:57:23.422Z,4.900
2023-03-30T07:58:23.442Z,5.300
2023-03-30T07:59:38.233Z,4.400
2023-03-30T08:00:24.273Z,4.699
2023-03-30T08:01:37.709Z,4
2023-03-30T08:02:23.373Z,5.800
2023-03-30T08:03:37.496Z,6.199
2023-03-30T08:04:26.033Z,5.699
2023-03-30T08:05:37.962Z,4.099
2023-03-30T08:06:24.112Z,5
2023-03-30T08:07:24.345Z,4.300
2023-03-30T08:08:24.033Z,4
2023-03-30T08:09:23.122Z,4.599
2023-03-30T08:10:24.133Z,4.300
2023-03-30T08:11:23.959Z,6
2023-03-30T08:12:23.537Z,4.300
2023-03-30T08:13:23.182Z,6.199
2023-03-30T08:14:23.430Z,4.699
2023-03-30T08:15:23.188Z,5
2023-03-30T08:16:23.277Z,4.900
2023-03-30T08:17:23.716Z,3.900
2023-03-30T08:18:23.435Z,5.300
2023-03-30T08:19:23.138Z,3.700
2023-03-30T08:20:23.593Z,5
2023-03-30T08:21:23.200Z,4.900
2023-03-30T08:22:23.542Z,4.599
2023-03-30T08:23:22.919Z,4.300
2023-03-30T08:24:23.447Z,3.400
2023-03-30T08:25:23.759Z,3.799
2023-03-30T08:26:23.518Z,4.5
2023-03-30T08:27:23.933Z,7.099
2023-03-30T08:28:23.606Z,4.900
2023-03-30T08:30:27.283Z,4.699
2023-03-30T08:31:23.835Z,4.099
2023-03-30T08:32:23.437Z,5.099
2023-03-30T08:33:23.662Z,5
2023-03-30T08:34:23.422Z,4.800
2023-03-30T08:35:23.183Z,4.400
2023-03-30T08:36:23.641Z,5
2023-03-30T08:37:24.513Z,6.900
2023-03-30T08:38:23.165Z,4.400
2023-03-30T08:39:23.619Z,6.800
2023-03-30T08:40:23.526Z,4.400
2023-03-30T08:41:23.229Z,5.400
2023-03-30T08:42:23.422Z,5.199
2023-03-30T08:43:23.171Z,5.400
2023-03-30T08:44:23.562Z,6
2023-03-30T08:45:23.500Z,3.700
2023-03-30T08:46:23.787Z,8.899
2023-03-30T08:47:23.419Z,5.699
2023-03-30T08:48:23.544Z,3.900
2023-03-30T08:49:24.272Z,5.900
2023-03-30T08:50:23.392Z,3.400
2023-03-30T08:51:23.866Z,6.5
2023-03-30T08:52:23.855Z,4.599
2023-03-30T08:54:23.139Z,5.300
2023-03-30T08:56:22.961Z,4.5
2023-03-30T08:57:23.467Z,3.599
2023-03-30T08:59:23.588Z,4.300
2023-03-30T09:00:24.326Z,5
2023-03-30T09:01:23.553Z,7.400
2023-03-30T09:02:23.382Z,5.199
2023-03-30T09:03:23.449Z,3.799
2023-03-30T09:04:23.608Z,5
2023-03-30T09:05:23.585Z,5.099
2023-03-30T09:06:23.552Z,7
2023-03-30T09:07:23.516Z,5.800
2023-03-30T09:08:23.395Z,4.900
2023-03-30T09:09:23.113Z,5.800
2023-03-30T09:10:23.474Z,4.400
2023-03-30T09:11:23.444Z,4.099
2023-03-30T09:12:23.686Z,3.700
2023-03-30T09:13:23.373Z,5.599
2023-03-30T09:15:23.305Z,5.199
2023-03-30T09:16:23.575Z,3.299
2023-03-30T09:18:26.871Z,5.400
2023-03-30T09:19:23.540Z,6.199
2023-03-30T09:20:23.303Z,6
2023-03-30T09:21:23.117Z,6.900
2023-03-30T09:22:23.950Z,7.599
2023-03-30T09:23:23.235Z,4.800
2023-03-30T09:25:23.494Z,5.699
2023-03-30T09:26:23.477Z,5.599
2023-03-30T09:27:23.949Z,6.400
2023-03-30T09:28:23.553Z,5.400
2023-03-30T09:29:23.126Z,5.599
2023-03-30T09:31:23.659Z,4.099
2023-03-30T09:32:23.273Z,5.300
2023-03-30T09:33:23.872Z,5.400
2023-03-30T09:34:23.210Z,5.099
2023-03-30T09:35:23.639Z,4.900
2023-03-30T09:36:23.570Z,5
2023-03-30T09:37:23.683Z,5.699
2023-03-30T09:38:23.457Z,5.199
2023-03-30T09:39:23.731Z,3.799
2023-03-30T09:40:23.537Z,4.599
2023-03-30T09:41:23.812Z,6.099
2023-03-30T09:42:23.475Z,6.900
2023-03-30T09:43:23.421Z,5.199
2023-03-30T09:45:23.618Z,4.199
2023-03-30T09:46:23.340Z,5.5
2023-03-30T09:47:23.916Z,4.699
2023-03-30T09:48:23.745Z,5.400
2023-03-30T09:49:23.465Z,6
2023-03-30T09:50:23.303Z,4.599
2023-03-30T09:51:23.397Z,6.900
2023-03-30T09:52:23.448Z,4.400
2023-03-30T09:53:23.763Z,3.099
2023-03-30T09:54:23.759Z,3.799
2023-03-30T09:55:23.559Z,6.800
2023-03-30T09:56:23.663Z,5.400
2023-03-30T09:57:23.336Z,4.599
2023-03-30T09:58:23.921Z,2.799
2023-03-30T09:59:23.331Z,1.5
2023-03-30T10:00:24.010Z,2.5
2023-03-30T10:01:23.913Z,1.399
2023-03-30T10:02:24.229Z,2.599
2023-03-30T10:03:24.122Z,1.799
2023-03-30T10:04:23.743Z,1.200
2023-03-30T10:05:23.652Z,2
2023-03-30T10:06:23.624Z,2.099
2023-03-30T10:07:23.094Z,1.299
2023-03-30T10:08:25.230Z,2
2023-03-30T10:09:23.353Z,1.899
2023-03-30T10:10:28.196Z,2.5
2023-03-30T10:11:23.303Z,1
2023-03-30T10:12:28.668Z,1.100
2023-03-30T10:13:23.232Z,1.200
2023-03-30T10:14:29.101Z,2
2023-03-30T10:15:24.535Z,1.799
2023-03-30T10:16:23.312Z,1
2023-03-30T10:17:23.351Z,1.600
2023-03-30T10:18:23.477Z,1
2023-03-30T10:19:23.515Z,2.799
2023-03-30T10:20:23.569Z,1.200
2023-03-30T10:21:23.012Z,1.600
2023-03-30T10:22:31.794Z,2.099
2023-03-30T10:23:23.390Z,1.600
2023-03-30T10:24:23.055Z,1.299
2023-03-30T10:26:37.548Z,3.200
2023-03-30T10:27:23.013Z,1.799
2023-03-30T10:28:23.647Z,2.400
2023-03-30T10:29:23.340Z,0.800
2023-03-30T10:30:24.078Z,2.900
2023-03-30T10:31:25.642Z,1
2023-03-30T10:32:23.178Z,1.899
2023-03-30T10:33:23.263Z,0.899
2023-03-30T10:34:23.824Z,1.100
2023-03-30T10:35:23.470Z,1.700
2023-03-30T10:36:23.277Z,1
2023-03-30T10:37:23.769Z,2.099
2023-03-30T10:38:23.119Z,1.600
2023-03-30T10:39:23.675Z,1.700
2023-03-30T10:40:23.911Z,1.100
2023-03-30T10:41:23.140Z,1.5
2023-03-30T10:42:23.786Z,1.799
2023-03-30T10:43:24.020Z,2.299
2023-03-30T10:44:24.170Z,2
2023-03-30T10:45:23.699Z,1
2023-03-30T10:46:23.713Z,1.5
2023-03-30T10:47:23.210Z,1.100
2023-03-30T10:48:23.827Z,1.5
2023-03-30T10:49:23.162Z,1.700
2023-03-30T10:50:23.655Z,1.100
2023-03-30T10:51:23.534Z,2.099
2023-03-30T10:52:23.431Z,1.399
2023-03-30T10:53:23.359Z,1.700
2023-03-30T10:54:23.505Z,1.600
2023-03-30T10:55:23.836Z,1.100
2023-03-30T10:56:23.312Z,1.299
2023-03-30T10:57:24.347Z,1.700
2023-03-30T10:58:23.561Z,0.899
2023-03-30T10:59:23.564Z,1.200
2023-03-30T11:00:24.010Z,3.200
2023-03-30T11:01:23.513Z,1.399
2023-03-30T11:02:24.174Z,2.200
2023-03-30T11:03:23.069Z,2.700
2023-03-30T11:04:24.403Z,2.400
2023-03-30T11:05:23.228Z,1.600
2023-03-30T11:06:23.396Z,2.400
2023-03-30T11:07:23.633Z,2.599
2023-03-30T11:08:23.218Z,2.099
2023-03-30T11:09:24.062Z,2.599
2023-03-30T11:10:23.215Z,2.200
2023-03-30T11:12:23.746Z,2.700
2023-03-30T11:13:23.464Z,1.399
2023-03-30T11:14:22.768Z,2.099
2023-03-30T11:15:23.839Z,2.799
2023-03-30T11:16:23.467Z,3.400
2023-03-30T11:18:23.450Z,3.299
2023-03-30T11:19:23.712Z,3.700
2023-03-30T11:20:23.442Z,3.200
2023-03-30T11:21:24.160Z,4.099
2023-03-30T11:22:23.364Z,4.300
2023-03-30T11:23:23.711Z,3.5
2023-03-30T11:24:23.297Z,2.400
2023-03-30T11:25:23.184Z,2.5
2023-03-30T11:26:23.335Z,3.200
2023-03-30T11:27:23.450Z,3.299
2023-03-30T11:28:23.401Z,2.599
2023-03-30T11:29:23.546Z,2.5
2023-03-30T11:30:23.267Z,3.599
2023-03-30T11:31:23.625Z,3.299
2023-03-30T11:32:23.654Z,2.099
2023-03-30T11:33:23.320Z,1.700
2023-03-30T11:34:23.539Z,2.599
2023-03-30T11:36:23.473Z,1.700
2023-03-30T11:37:22.963Z,2.700
2023-03-30T11:38:23.111Z,2.299
2023-03-30T11:39:31.690Z,1.700
2023-03-30T11:40:26.377Z,1.5
2023-03-30T11:41:23.189Z,1.600
2023-03-30T11:42:23.996Z,0.800
2023-03-30T11:43:23.181Z,0.899
2023-03-30T11:44:23.369Z,1.100
2023-03-30T11:47:23.145Z,1.299
2023-03-30T11:48:23.702Z,1.899
2023-03-30T11:49:23.831Z,0.899
2023-03-30T11:50:24.231Z,1.5
2023-03-30T11:51:23.879Z,1.799
2023-03-30T11:53:23.684Z,1.399
2023-03-30T11:54:23.278Z,1.299
2023-03-30T11:55:23.960Z,2.400
2023-03-30T11:56:25.061Z,2.5
2023-03-30T11:57:23.439Z,2.099
2023-03-30T11:58:23.553Z,1.700
2023-03-30T11:59:23.457Z,2
2023-03-30T12:00:24.106Z,3.599
2023-03-30T12:01:23.573Z,4
2023-03-30T12:02:23.570Z,2.900
2023-03-30T12:03:23.706Z,2.700
2023-03-30T12:04:23.649Z,5.099
2023-03-30T12:05:23.681Z,3.5
2023-03-30T12:06:22.980Z,3.200
2023-03-30T12:07:23.448Z,3.299
2023-03-30T12:08:23.221Z,4.400
2023-03-30T12:09:23.568Z,3
2023-03-30T12:11:23.192Z,3.200
2023-03-30T12:12:23.331Z,4.400
2023-03-30T12:13:23.647Z,4.300
2023-03-30T12:14:23.696Z,3.599
2023-03-30T12:15:24.171Z,3.799
2023-03-30T12:16:25.078Z,3.400
2023-03-30T12:17:23.988Z,3.700
2023-03-30T12:18:23.743Z,3.200
2023-03-30T12:19:23.471Z,3.799
2023-03-30T12:20:23.428Z,6.400
2023-03-30T12:21:23.814Z,2.299
2023-03-30T12:22:23.747Z,4.699
2023-03-30T12:23:22.911Z,2.700
2023-03-30T12:24:23.372Z,2.099
2023-03-30T12:25:23.639Z,3.599
2023-03-30T12:26:23.399Z,3.400
2023-03-30T12:27:27.588Z,2.400
2023-03-30T12:28:22.903Z,3.299
2023-03-30T12:30:26.265Z,4
2023-03-30T12:31:23.597Z,2.400
2023-03-30T12:32:24.620Z,2.799
2023-03-30T12:33:23.033Z,2
2023-03-30T12:34:23.031Z,3.400
2023-03-30T12:35:23.608Z,3.700
2023-03-30T12:36:23.102Z,2.099
2023-03-30T12:37:23.835Z,1.899
2023-03-30T12:38:23.675Z,3.099
2023-03-30T12:39:23.680Z,1.700
2023-03-30T12:40:23.568Z,1.399
2023-03-30T12:41:22.892Z,2.700
2023-03-30T12:42:23.521Z,2.200
2023-03-30T12:43:23.131Z,2.799
2023-03-30T12:44:23.925Z,1.399
2023-03-30T12:45:23.940Z,2
2023-03-30T12:46:23.552Z,2.400
2023-03-30T12:47:37.305Z,3
2023-03-30T12:48:23.697Z,2.400
2023-03-30T12:49:23.560Z,3
2023-03-30T12:50:23.562Z,2.599
2023-03-30T12:52:23.190Z,3.400
2023-03-30T12:53:23.072Z,3.099
2023-03-30T12:54:23.649Z,5.599
2023-03-30T12:55:23.658Z,5.099
2023-03-30T12:56:23.488Z,3
2023-03-30T12:57:23.489Z,4.699
2023-03-30T12:58:23.266Z,5.300
2023-03-30T12:59:23.566Z,4.900
2023-03-30T13:00:23.524Z,4.099
2023-03-30T13:01:37.667Z,4.800
2023-03-30T13:02:23.285Z,4.400
2023-03-30T13:03:23.272Z,4.599
2023-03-30T13:04:24.219Z,5.800
2023-03-30T13:05:23.419Z,5.199
2023-03-30T13:06:24.054Z,4.099
2023-03-30T13:07:24.100Z,5.5
2023-03-30T13:08:23.767Z,3.099
2023-03-30T13:09:23.852Z,4.400
2023-03-30T13:10:23.527Z,4.599
2023-03-30T13:11:23.281Z,6.300
2023-03-30T13:12:23.768Z,4.900
2023-03-30T13:13:23.386Z,4.599
2023-03-30T13:14:23.742Z,6.699
2023-03-30T13:15:23.721Z,5
2023-03-30T13:16:23.391Z,4.900
2023-03-30T13:17:23.824Z,5.699
2023-03-30T13:18:23.305Z,4.599
2023-03-30T13:19:45.683Z,5.400
2023-03-30T13:20:29.657Z,5.800
2023-03-30T13:21:23.590Z,7.5
2023-03-30T13:22:23.352Z,4.900
2023-03-30T13:24:27.351Z,4.900
2023-03-30T13:25:23.055Z,5.900
2023-03-30T13:26:33.813Z,6.599
2023-03-30T13:27:23.792Z,5
2023-03-30T13:28:23.597Z,6.099
2023-03-30T13:29:23.537Z,6.699
2023-03-30T13:30:23.562Z,7.099
2023-03-30T13:32:27.025Z,5
2023-03-30T13:33:23.594Z,4.900
2023-03-30T13:35:24.042Z,5.699
2023-03-30T13:36:23.716Z,6.199
2023-03-30T13:37:23.078Z,5.300
2023-03-30T13:38:23.345Z,3.700
2023-03-30T13:39:23.850Z,6.599
2023-03-30T13:40:37.236Z,4.5
2023-03-30T13:41:23.551Z,5.5
2023-03-30T13:42:23.708Z,5.699
2023-03-30T13:43:23.783Z,4.300
2023-03-30T13:44:23.946Z,5.199
2023-03-30T13:45:23.732Z,5.900
2023-03-30T13:46:23.926Z,6.900
2023-03-30T13:47:23.531Z,6.5
2023-03-30T13:48:23.629Z,4.699
2023-03-30T13:49:23.741Z,4.900
2023-03-30T13:50:26.161Z,5
2023-03-30T13:51:23.226Z,4.599
2023-03-30T13:52:23.640Z,4.5
2023-03-30T13:53:23.292Z,5.599
2023-03-30T13:54:23.513Z,4.900
2023-03-30T13:55:23.723Z,4
2023-03-30T13:56:23.682Z,4.599
2023-03-30T13:57:23.723Z,5.699
2023-03-30T13:58:23.090Z,5.300
2023-03-30T13:59:22.961Z,7.199
2023-03-30T14:00:23.871Z,6
2023-03-30T14:01:23.418Z,5.800
2023-03-30T14:02:24.206Z,5.300
2023-03-30T14:03:23.281Z,6.400
2023-03-30T14:04:23.596Z,4
2023-03-30T14:05:23.480Z,5.900
2023-03-30T14:06:23.377Z,4.699
2023-03-30T14:07:23.520Z,5.199
2023-03-30T14:08:23.501Z,5.400
2023-03-30T14:09:23.600Z,5.800
2023-03-30T14:10:23.634Z,5.5
2023-03-30T14:11:23.678Z,5.300
2023-03-30T14:12:23.615Z,3.900
2023-03-30T14:13:23.308Z,5.800
2023-03-30T14:14:23.639Z,4.5
2023-03-30T14:15:23.397Z,4.699
2023-03-30T14:16:23.940Z,6.300
2023-03-30T14:17:24.194Z,5.5
2023-03-30T14:18:24.400Z,6.5
2023-03-30T14:20:23.181Z,6.400
2023-03-30T14:21:23.455Z,6.599
2023-03-30T14:22:24.254Z,6.699
2023-03-30T14:23:23.417Z,6.900
2023-03-30T14:24:23.428Z,5.400
2023-03-30T14:25:23.442Z,6.099
2023-03-30T14:26:23.429Z,6.199
2023-03-30T14:27:23.408Z,5.800
2023-03-30T14:28:23.727Z,7.900
2023-03-30T14:29:31.296Z,6
2023-03-30T14:30:23.464Z,6.900
2023-03-30T14:31:23.786Z,6.800
2023-03-30T14:32:23.716Z,4.300
2023-03-30T14:33:23.699Z,5.300
2023-03-30T14:34:23.419Z,6.699
2023-03-30T14:35:23.609Z,7.099
2023-03-30T14:36:23.510Z,5.800
2023-03-30T14:37:23.823Z,5.599
2023-03-30T14:38:23.422Z,6.699
2023-03-30T14:40:23.346Z,6.300
2023-03-30T14:42:23.557Z,6.599
2023-03-30T14:43:23.885Z,7.300
2023-03-30T14:44:23.932Z,7.5
2023-03-30T14:45:23.631Z,9.300
2023-03-30T14:46:23.504Z,7.400
2023-03-30T14:47:24.371Z,7.5
2023-03-30T14:48:24.117Z,7.400
2023-03-30T14:49:23.770Z,8.5
2023-03-30T14:50:23.470Z,6.800
2023-03-30T14:51:24.088Z,5.099
2023-03-30T14:52:24.848Z,6.300
2023-03-30T14:53:24.474Z,5.900
2023-03-30T14:54:28.492Z,5.699
2023-03-30T14:55:24.179Z,5.599
2023-03-30T14:56:28.625Z,4.400
2023-03-30T14:57:23.495Z,5.400
2023-03-30T14:58:23.451Z,4.599
2023-03-30T14:59:23.691Z,5.300
2023-03-30T15:01:23.839Z,4.300
2023-03-30T15:02:23.754Z,3.299
2023-03-30T15:03:33.461Z,7.599
2023-03-30T15:04:28.449Z,6.199
2023-03-30T15:05:23.519Z,3.900
2023-03-30T15:06:24.397Z,5.699
2023-03-30T15:07:23.969Z,6.099
2023-03-30T15:08:31.545Z,5.199
2023-03-30T15:09:22.951Z,8.5
2023-03-30T15:10:23.727Z,4.699
2023-03-30T15:11:23.504Z,3.700
2023-03-30T15:12:23.146Z,4.699
2023-03-30T15:13:23.354Z,5.300
2023-03-30T15:14:23.640Z,10.39
2023-03-30T15:15:23.690Z,7.099
2023-03-30T15:16:23.180Z,6.300
2023-03-30T15:17:23.697Z,5.5
2023-03-30T15:18:23.635Z,5.199
2023-03-30T15:19:23.321Z,6
2023-03-30T15:20:23.766Z,7.099
2023-03-30T15:21:23.144Z,6.099
2023-03-30T15:22:37.641Z,5.5
2023-03-30T15:23:23.912Z,4
2023-03-30T15:24:23.355Z,5.5
2023-03-30T15:25:23.755Z,4.800
2023-03-30T15:26:23.258Z,4.300
2023-03-30T15:27:24.011Z,6.5
2023-03-30T15:28:23.488Z,9.100
2023-03-30T15:29:23.962Z,4.599
2023-03-30T15:30:43.370Z,3.700
2023-03-30T15:31:23.104Z,5
2023-03-30T15:32:23.720Z,4.5
2023-03-30T15:33:23.312Z,4.699
2023-03-30T15:34:23.272Z,5
2023-03-30T15:35:24.245Z,4.900
2023-03-30T15:36:22.978Z,5.699
2023-03-30T15:38:23.236Z,4.900
2023-03-30T15:39:23.735Z,4.5
2023-03-30T15:40:23.353Z,6.199
2023-03-30T15:41:23.529Z,7
2023-03-30T15:42:23.591Z,5.5
2023-03-30T15:43:23.792Z,6.099
2023-03-30T15:44:23.899Z,4.900
2023-03-30T15:46:23.397Z,4.199
2023-03-30T15:47:23.493Z,5
2023-03-30T15:48:23.404Z,5.900
2023-03-30T15:49:23.599Z,4.800
2023-03-30T15:50:24.022Z,3.400
2023-03-30T15:51:23.577Z,4.5
2023-03-30T15:52:23.217Z,5.900
2023-03-30T15:53:23.414Z,9.800
2023-03-30T15:54:23.600Z,12.10
2023-03-30T15:55:23.730Z,38.29
2023-03-30T15:56:23.793Z,12.19
2023-03-30T15:57:23.449Z,9.5
2023-03-30T15:58:23.715Z,6.300
2023-03-30T15:59:23.332Z,7.099
2023-03-30T16:00:24.963Z,4.800
2023-03-30T16:01:23.769Z,4.900
2023-03-30T16:02:24.186Z,5.5
2023-03-30T16:03:23.574Z,7.800
2023-03-30T16:04:24.059Z,7.199
2023-03-30T16:05:23.719Z,6.699
2023-03-30T16:07:26.987Z,6.599
2023-03-30T16:08:23.848Z,6.699
2023-03-30T16:09:23.166Z,8.399
2023-03-30T16:10:24.052Z,6.900
2023-03-30T16:11:23.349Z,6.300
2023-03-30T16:12:23.909Z,7
2023-03-30T16:13:23.249Z,6
2023-03-30T16:14:23.446Z,6.5
2023-03-30T16:15:23.964Z,8.300
2023-03-30T16:16:23.407Z,7.199
2023-03-30T16:17:23.287Z,6.400
2023-03-30T16:18:23.545Z,5.300
2023-03-30T16:19:23.643Z,6.699
2023-03-30T16:20:23.562Z,6.199
2023-03-30T16:21:23.894Z,7.400
2023-03-30T16:22:22.886Z,5.599
2023-03-30T16:23:23.286Z,5.5
2023-03-30T16:24:24.084Z,5.800
2023-03-30T16:25:31.123Z,6.400
2023-03-30T16:26:23.610Z,5.5
2023-03-30T16:27:23.652Z,4.800
2023-03-30T16:28:23.635Z,5.5
2023-03-30T16:29:23.512Z,7.599
2023-03-30T16:30:24.192Z,4.5
2023-03-30T16:31:23.937Z,6
2023-03-30T16:32:24.232Z,4.099
2023-03-30T16:33:23.526Z,5.699
2023-03-30T16:34:23.625Z,5.099
2023-03-30T16:35:23.271Z,4.800
2023-03-30T16:36:23.786Z,4
2023-03-30T16:37:23.384Z,3.700
2023-03-30T16:38:24.074Z,3.099
2023-03-30T16:39:23.697Z,3
2023-03-30T16:40:23.416Z,5.099
2023-03-30T16:41:23.267Z,5.5
2023-03-30T16:42:23.199Z,3.5
2023-03-30T16:43:23.252Z,4.400
2023-03-30T16:44:23.194Z,4.599
2023-03-30T16:45:23.690Z,5
2023-03-30T16:46:23.458Z,4.599
2023-03-30T16:47:23.822Z,4.099
2023-03-30T16:49:23.391Z,3.700
2023-03-30T16:50:23.800Z,4.400
2023-03-30T16:51:23.606Z,4.300
2023-03-30T16:52:23.264Z,3.700
2023-03-30T16:53:23.739Z,7
2023-03-30T16:54:30.376Z,3.900
2023-03-30T16:55:23.226Z,5.199
2023-03-30T16:56:23.189Z,4.5
2023-03-30T16:57:23.512Z,4.400
2023-03-30T16:58:23.435Z,4.699
2023-03-30T16:59:23.295Z,5.800
2023-03-30T17:00:24.534Z,6
2023-03-30T17:01:23.454Z,4.599
2023-03-30T17:02:23.798Z,3.599
2023-03-30T17:03:23.839Z,4.699
2023-03-30T17:04:23.857Z,6.800
2023-03-30T17:05:23.958Z,4.5
2023-03-30T17:06:23.763Z,4.099
2023-03-30T17:07:23.898Z,4.800
2023-03-30T17:08:23.624Z,5.199
2023-03-30T17:09:24.070Z,4.5
2023-03-30T17:10:23.976Z,6.099
2023-03-30T17:11:23.662Z,5.099
2023-03-30T17:12:23.666Z,5.400
2023-03-30T17:13:23.422Z,4.5
2023-03-30T17:14:23.120Z,4.699
2023-03-30T17:15:24.623Z,5.599
2023-03-30T17:16:23.277Z,6
2023-03-30T17:17:23.190Z,5.099
2023-03-30T17:18:23.287Z,4.400
2023-03-30T17:19:24.110Z,4.699
2023-03-30T17:20:23.626Z,4.099
2023-03-30T17:21:28.257Z,5.800
2023-03-30T17:22:23.097Z,5.199
2023-03-30T17:23:28.663Z,5
2023-03-30T17:24:23.533Z,4.5
2023-03-30T17:25:28.122Z,4.699
2023-03-30T17:26:23.306Z,4.5
2023-03-30T17:28:23.449Z,4.800
2023-03-30T17:29:23.424Z,5.300
2023-03-30T17:30:24.303Z,3.700
2023-03-30T17:31:28.923Z,4.199
2023-03-30T17:32:23.401Z,4.800
2023-03-30T17:33:23.489Z,4.099
2023-03-30T17:34:24.206Z,3.799
2023-03-30T17:35:23.872Z,3.400
2023-03-30T17:36:23.555Z,5.5
2023-03-30T17:37:23.842Z,4.400
2023-03-30T17:38:23.347Z,3.5
2023-03-30T17:39:23.735Z,2.799
2023-03-30T17:40:23.738Z,3.900
2023-03-30T17:41:23.087Z,3.5
2023-03-30T17:42:23.033Z,4
2023-03-30T17:43:23.513Z,3.5
2023-03-30T17:44:23.455Z,3.799
2023-03-30T17:45:24.093Z,3.599
2023-03-30T17:46:23.505Z,3.400
2023-03-30T17:47:23.304Z,3
2023-03-30T17:48:23.643Z,2.299
2023-03-30T17:49:23.379Z,3.400
2023-03-30T17:50:23.444Z,2.900
2023-03-30T17:51:23.970Z,3.400
2023-03-30T17:52:23.911Z,3
2023-03-30T17:53:23.048Z,3.299
2023-03-30T17:54:23.460Z,3.099
2023-03-30T17:55:23.319Z,2.400
2023-03-30T17:56:23.676Z,3
2023-03-30T17:57:23.690Z,3.400
2023-03-30T17:59:42.561Z,4
2023-03-30T18:00:24.176Z,3.099
2023-03-30T18:01:42.221Z,1.799
2023-03-30T18:02:23.940Z,4.099
2023-03-30T18:03:23.632Z,3.799
2023-03-30T18:04:23.217Z,2.599
2023-03-30T18:05:23.276Z,2.900
2023-03-30T18:06:23.706Z,3.400
2023-03-30T18:07:23.057Z,3
2023-03-30T18:08:23.613Z,2.900
2023-03-30T18:09:23.565Z,3.900
2023-03-30T18:10:23.435Z,3.700
2023-03-30T18:11:23.384Z,3
2023-03-30T18:12:23.495Z,2
2023-03-30T18:13:23.598Z,2.400
2023-03-30T18:14:23.282Z,3.900
2023-03-30T18:15:23.875Z,3.799
2023-03-30T18:16:23.664Z,3.099
2023-03-30T18:17:23.767Z,2.900
2023-03-30T18:18:23.897Z,3.099
2023-03-30T18:19:23.480Z,3.200
2023-03-30T18:20:23.945Z,3.900
2023-03-30T18:21:23.336Z,4.199
2023-03-30T18:22:23.317Z,3.200
2023-03-30T18:23:23.871Z,4.099
2023-03-30T18:24:22.895Z,2.900
2023-03-30T18:25:31.925Z,4
2023-03-30T18:26:23.342Z,3.5
2023-03-30T18:27:23.562Z,2.900
2023-03-30T18:28:23.706Z,5.599
2023-03-30T18:29:23.227Z,2.900
2023-03-30T18:30:23.868Z,3.099
2023-03-30T18:31:23.265Z,3
2023-03-30T18:32:29.083Z,4.599
2023-03-30T18:33:24.295Z,3
2023-03-30T18:34:23.855Z,4.099
2023-03-30T18:35:23.629Z,2.900
2023-03-30T18:36:23.310Z,2.599
2023-03-30T18:37:23.196Z,3
2023-03-30T18:38:23.410Z,3.400
2023-03-30T18:39:23.648Z,3.700
2023-03-30T18:40:23.858Z,3.900
2023-03-30T18:42:23.342Z,4
2023-03-30T18:43:23.638Z,2.400
2023-03-30T18:44:23.905Z,3
2023-03-30T18:45:23.592Z,3.5
2023-03-30T18:46:23.166Z,3.700
2023-03-30T18:47:23.331Z,2.900
2023-03-30T18:48:23.367Z,4
2023-03-30T18:49:23.580Z,4.599
2023-03-30T18:50:23.746Z,4
2023-03-30T18:51:22.957Z,3.099
2023-03-30T18:52:23.304Z,3.599
2023-03-30T18:53:23.383Z,3.700
2023-03-30T18:54:23.309Z,4.199
2023-03-30T18:55:24.044Z,4.5
2023-03-30T18:56:24.693Z,5.400
2023-03-30T18:57:24.981Z,3.400
2023-03-30T18:58:23.810Z,5
2023-03-30T18:59:23.892Z,4.800
2023-03-30T19:00:25.345Z,3.299
2023-03-30T19:01:24.640Z,3
2023-03-30T19:02:23.638Z,4.800
2023-03-30T19:03:23.898Z,3.700
2023-03-30T19:04:24.157Z,4.300
2023-03-30T19:05:23.608Z,4.099
2023-03-30T19:06:23.661Z,4.5
2023-03-30T19:07:24.560Z,4.599
2023-03-30T19:08:23.246Z,4
2023-03-30T19:09:36.360Z,7.099
2023-03-30T19:10:23.570Z,5.300
2023-03-30T19:11:23.409Z,4
2023-03-30T19:12:23.500Z,5.5
2023-03-30T19:13:23.423Z,3.900
2023-03-30T19:14:23.293Z,5
2023-03-30T19:15:24.022Z,5.5
2023-03-30T19:16:23.309Z,4.599
2023-03-30T19:17:23.457Z,6.300
2023-03-30T19:18:23.523Z,4
2023-03-30T19:19:23.672Z,5.400
2023-03-30T19:20:23.300Z,5.800
2023-03-30T19:21:23.440Z,4.900
2023-03-30T19:22:23.467Z,5
2023-03-30T19:23:23.710Z,4
2023-03-30T19:24:23.237Z,4.099
2023-03-30T19:25:23.772Z,3.900
2023-03-30T19:26:23.539Z,6
2023-03-30T19:27:23.617Z,5.400
2023-03-30T19:28:23.162Z,4.599
2023-03-30T19:29:23.737Z,4.5
2023-03-30T19:30:23.608Z,6.099
2023-03-30T19:31:23.072Z,5.199
2023-03-30T19:32:23.393Z,5.400
2023-03-30T19:33:23.657Z,5.800
2023-03-30T19:34:23.437Z,4.599
2023-03-30T19:35:23.864Z,5.800
2023-03-30T19:36:25.195Z,4.599
2023-03-30T19:37:23.295Z,5.199
2023-03-30T19:38:23.434Z,4.400
2023-03-30T19:39:24.166Z,5.199
2023-03-30T19:40:23.936Z,6.800
2023-03-30T19:41:23.552Z,3.799
2023-03-30T19:42:27.967Z,5.099
2023-03-30T19:43:23.383Z,4.300
2023-03-30T19:44:23.299Z,5.5
2023-03-30T19:45:24.019Z,6
2023-03-30T19:46:23.877Z,7.300
2023-03-30T19:47:23.404Z,4.699
2023-03-30T19:48:23.462Z,5.199
2023-03-30T19:49:23.148Z,4.599
2023-03-30T19:51:23.654Z,5
2023-03-30T19:52:23.131Z,4.099
2023-03-30T19:53:23.342Z,5.5
2023-03-30T19:54:23.404Z,5.099
2023-03-30T19:55:23.637Z,4.300
2023-03-30T19:56:23.321Z,5.300
2023-03-30T19:57:23.724Z,5.199
2023-03-30T19:58:31.186Z,4
2023-03-30T19:59:23.261Z,5.300
2023-03-30T20:00:24.391Z,4.900
2023-03-30T20:01:23.821Z,5
2023-03-30T20:02:23.362Z,7.099
2023-03-30T20:03:23.907Z,5.5
2023-03-30T20:04:23.384Z,5
2023-03-30T20:05:23.851Z,5.099